createdAt,value
2017-04-25T00:00:08.788Z,997.23
2017-04-25T00:01:09.414Z,997.15
2017-04-25T00:02:10.030Z,997.16
2017-04-25T00:03:10.674Z,997.14
2017-04-25T00:04:11.299Z,997.12
2017-04-25T00:05:11.891Z,997.10
2017-04-25T00:06:12.487Z,997.17
2017-04-25T00:07:13.101Z,997.14
2017-04-25T00:08:13.705Z,997.09
2017-04-25T00:09:14.302Z,997.06
2017-04-25T00:10:14.914Z,997.05
2017-04-25T00:11:15.524Z,997.04
2017-04-25T00:12:16.121Z,996.96
2017-04-25T00:13:16.723Z,996.98
2017-04-25T00:14:17.320Z,997.01
2017-04-25T00:15:17.929Z,996.99
2017-04-25T00:16:18.526Z,996.99
2017-04-25T00:17:19.134Z,997.00
2017-04-25T00:18:19.735Z,996.99
2017-04-25T00:19:20.344Z,996.95
2017-04-25T00:20:20.940Z,997.01
2017-04-25T00:21:21.548Z,996.94
2017-04-25T00:22:22.154Z,996.92
2017-04-25T00:23:22.761Z,996.91
2017-04-25T00:24:23.368Z,996.90
2017-04-25T00:25:23.977Z,996.88
2017-04-25T00:26:24.585Z,996.85
2017-04-25T00:27:25.190Z,996.82
2017-04-25T00:28:25.798Z,996.83
2017-04-25T00:29:26.410Z,996.82
2017-04-25T00:30:27.005Z,996.80
2017-04-25T00:31:27.612Z,996.78
2017-04-25T00:32:28.208Z,996.75
2017-04-25T00:33:28.814Z,996.76
2017-04-25T00:34:29.412Z,996.75
2017-04-25T00:35:30.021Z,996.77
2017-04-25T00:36:30.636Z,996.74
2017-04-25T00:37:31.238Z,996.78
2017-04-25T00:38:31.831Z,996.81
2017-04-25T00:39:32.427Z,996.86
2017-04-25T00:40:33.034Z,996.78
2017-04-25T00:41:33.632Z,996.88
2017-04-25T00:42:34.248Z,997.01
2017-04-25T00:43:34.858Z,996.98
2017-04-25T00:44:35.464Z,997.08
2017-04-25T00:45:36.071Z,997.07
2017-04-25T00:46:36.670Z,997.07
2017-04-25T00:47:37.271Z,997.17
2017-04-25T00:48:37.872Z,997.10
2017-04-25T00:49:38.468Z,997.06
2017-04-25T00:50:39.079Z,997.07
2017-04-25T00:51:39.687Z,997.17
2017-04-25T00:52:40.297Z,997.07
2017-04-25T00:53:40.899Z,997.16
2017-04-25T00:54:41.498Z,997.12
2017-04-25T00:55:42.110Z,997.09
2017-04-25T00:56:42.723Z,997.06
2017-04-25T00:57:43.327Z,997.04
2017-04-25T00:58:43.938Z,997.00
2017-04-25T00:59:44.529Z,997.03
2017-04-25T01:00:45.142Z,996.97
2017-04-25T01:01:45.753Z,996.96
2017-04-25T01:02:46.359Z,997.05
2017-04-25T01:03:46.973Z,997.04
2017-04-25T01:04:47.578Z,997.04
2017-04-25T01:05:48.174Z,997.07
2017-04-25T01:06:48.770Z,997.08
2017-04-25T01:07:49.367Z,997.12
2017-04-25T01:08:49.978Z,997.16
2017-04-25T01:09:50.591Z,997.22
2017-04-25T01:10:51.197Z,997.28
2017-04-25T01:11:51.810Z,997.21
2017-04-25T01:12:52.407Z,997.25
2017-04-25T01:13:53.017Z,997.25
2017-04-25T01:14:53.610Z,997.34
2017-04-25T01:15:54.218Z,997.36
2017-04-25T01:16:54.810Z,997.32
2017-04-25T01:17:55.406Z,997.40
2017-04-25T01:18:56.020Z,997.17
2017-04-25T01:19:56.672Z,997.40
2017-04-25T01:20:57.275Z,997.38
2017-04-25T01:21:57.880Z,997.51
2017-04-25T01:22:58.480Z,997.46
2017-04-25T01:23:59.079Z,997.50
2017-04-25T01:24:59.682Z,997.55
2017-04-25T01:26:00.289Z,997.52
2017-04-25T01:27:00.883Z,997.57
2017-04-25T01:28:01.485Z,997.55
2017-04-25T01:29:02.081Z,997.57
2017-04-25T01:30:02.740Z,997.65
2017-04-25T01:31:03.338Z,997.59
2017-04-25T01:32:03.945Z,997.62
2017-04-25T01:33:04.550Z,997.62
2017-04-25T01:34:05.143Z,997.59
2017-04-25T01:35:05.753Z,997.60
2017-04-25T01:36:06.343Z,997.70
2017-04-25T01:37:06.948Z,997.62
2017-04-25T01:38:07.552Z,997.66
2017-04-25T01:39:08.152Z,997.60
2017-04-25T01:40:08.749Z,997.57
2017-04-25T01:41:09.359Z,997.57
2017-04-25T01:42:09.959Z,997.59
2017-04-25T01:43:10.561Z,997.60
2017-04-25T01:44:11.157Z,997.63
2017-04-25T01:45:11.748Z,997.63
2017-04-25T01:46:12.338Z,997.61
2017-04-25T01:47:12.930Z,997.66
2017-04-25T01:48:13.531Z,997.68
2017-04-25T01:49:14.130Z,997.71
2017-04-25T01:50:14.720Z,997.68
2017-04-25T01:51:15.330Z,997.71
2017-04-25T01:52:15.938Z,997.67
2017-04-25T01:53:16.542Z,997.63
2017-04-25T01:54:17.134Z,997.62
2017-04-25T01:55:17.736Z,997.68
2017-04-25T01:56:18.335Z,997.67
2017-04-25T01:57:18.927Z,997.61
2017-04-25T01:58:19.520Z,997.55
2017-04-25T01:59:20.126Z,997.59
2017-04-25T02:00:20.719Z,997.59
2017-04-25T02:01:21.316Z,997.58
2017-04-25T02:02:21.933Z,997.62
2017-04-25T02:03:22.538Z,997.55
2017-04-25T02:04:23.143Z,997.56
2017-04-25T02:05:23.750Z,997.52
2017-04-25T02:06:24.357Z,997.54
2017-04-25T02:07:24.966Z,997.53
2017-04-25T02:08:25.576Z,997.53
2017-04-25T02:09:26.170Z,997.55
2017-04-25T02:10:26.774Z,997.53
2017-04-25T02:11:27.381Z,997.54
2017-04-25T02:12:27.970Z,997.52
2017-04-25T02:13:28.563Z,997.52
2017-04-25T02:14:29.160Z,997.54
2017-04-25T02:15:29.748Z,997.51
2017-04-25T02:16:30.344Z,997.52
2017-04-25T02:17:30.953Z,997.55
2017-04-25T02:18:31.557Z,997.56
2017-04-25T02:19:32.152Z,997.62
2017-04-25T02:20:32.744Z,997.58
2017-04-25T02:21:33.354Z,997.59
2017-04-25T02:22:33.949Z,997.54
2017-04-25T02:23:34.544Z,997.55
2017-04-25T02:24:35.139Z,997.55
2017-04-25T02:25:35.743Z,997.56
2017-04-25T02:26:36.346Z,997.57
2017-04-25T02:27:36.940Z,997.60
2017-04-25T02:28:37.537Z,997.61
2017-04-25T02:29:38.142Z,997.62
2017-04-25T02:30:38.787Z,997.63
2017-04-25T02:31:39.382Z,997.62
2017-04-25T02:32:39.987Z,997.66
2017-04-25T02:33:40.578Z,997.64
2017-04-25T02:34:41.181Z,997.61
2017-04-25T02:35:41.785Z,997.62
2017-04-25T02:36:42.391Z,997.61
2017-04-25T02:37:43.000Z,997.58
2017-04-25T02:38:43.606Z,997.59
2017-04-25T02:39:44.198Z,997.59
2017-04-25T02:40:44.787Z,997.59
2017-04-25T02:41:45.395Z,997.57
2017-04-25T02:42:45.999Z,997.59
2017-04-25T02:43:46.603Z,997.64
2017-04-25T02:44:47.196Z,997.65
2017-04-25T02:45:47.803Z,997.66
2017-04-25T02:46:48.395Z,997.62
2017-04-25T02:47:48.999Z,997.63
2017-04-25T02:48:49.593Z,997.67
2017-04-25T02:49:50.196Z,997.70
2017-04-25T02:50:50.789Z,997.67
2017-04-25T02:51:51.387Z,997.69
2017-04-25T02:52:51.979Z,997.70
2017-04-25T02:53:52.580Z,997.60
2017-04-25T02:54:53.169Z,997.61
2017-04-25T02:55:53.763Z,997.58
2017-04-25T02:56:54.370Z,997.62
2017-04-25T02:57:54.975Z,997.60
2017-04-25T02:58:55.583Z,997.66
2017-04-25T02:59:56.176Z,997.68
2017-04-25T03:00:56.780Z,997.65
2017-04-25T03:01:57.385Z,997.66
2017-04-25T03:02:57.978Z,997.69
2017-04-25T03:03:58.577Z,997.68
2017-04-25T03:04:59.167Z,997.70
2017-04-25T03:05:59.816Z,997.72
2017-04-25T03:07:00.417Z,997.74
2017-04-25T03:08:01.020Z,997.75
2017-04-25T03:09:01.615Z,997.75
2017-04-25T03:10:02.211Z,997.75
2017-04-25T03:11:02.804Z,997.77
2017-04-25T03:12:03.395Z,997.78
2017-04-25T03:13:03.998Z,997.74
2017-04-25T03:14:04.606Z,997.75
2017-04-25T03:15:05.213Z,997.73
2017-04-25T03:16:05.808Z,997.73
2017-04-25T03:17:06.405Z,997.75
2017-04-25T03:18:07.009Z,997.78
2017-04-25T03:19:07.616Z,997.74
2017-04-25T03:20:08.210Z,997.76
2017-04-25T03:21:08.814Z,997.71
2017-04-25T03:22:09.421Z,997.76
2017-04-25T03:23:10.026Z,997.71
2017-04-25T03:24:10.620Z,997.71
2017-04-25T03:25:11.206Z,997.71
2017-04-25T03:26:11.797Z,997.70
2017-04-25T03:27:12.400Z,997.68
2017-04-25T03:28:13.001Z,997.70
2017-04-25T03:29:13.603Z,997.67
2017-04-25T03:30:14.205Z,997.68
2017-04-25T03:31:14.799Z,997.62
2017-04-25T03:32:15.403Z,997.66
2017-04-25T03:33:16.006Z,997.61
2017-04-25T03:34:16.597Z,997.64
2017-04-25T03:35:17.200Z,997.67
2017-04-25T03:36:17.804Z,997.65
2017-04-25T03:37:18.412Z,997.68
2017-04-25T03:38:19.027Z,997.68
2017-04-25T03:39:19.631Z,997.71
2017-04-25T03:40:20.226Z,997.67
2017-04-25T03:41:20.816Z,997.69
2017-04-25T03:42:21.423Z,997.71
2017-04-25T03:43:22.011Z,997.68
2017-04-25T03:44:22.607Z,997.69
2017-04-25T03:45:23.211Z,997.70
2017-04-25T03:46:23.819Z,997.73
2017-04-25T03:47:24.429Z,997.72
2017-04-25T03:48:25.023Z,997.73
2017-04-25T03:49:25.611Z,997.73
2017-04-25T03:50:26.207Z,997.75
2017-04-25T03:51:26.812Z,997.76
2017-04-25T03:52:27.408Z,997.74
2017-04-25T03:53:28.009Z,997.75
2017-04-25T03:54:28.614Z,997.77
2017-04-25T03:55:29.211Z,997.74
2017-04-25T03:56:29.802Z,997.73
2017-04-25T03:57:30.408Z,997.69
2017-04-25T03:58:31.003Z,997.70
2017-04-25T03:59:31.598Z,997.70
2017-04-25T04:00:32.200Z,997.69
2017-04-25T04:01:32.804Z,997.71
2017-04-25T04:02:33.411Z,997.70
2017-04-25T04:03:34.017Z,997.74
2017-04-25T04:04:34.608Z,997.75
2017-04-25T04:05:35.214Z,997.77
2017-04-25T04:06:35.812Z,997.79
2017-04-25T04:07:36.405Z,997.79
2017-04-25T04:08:37.011Z,997.77
2017-04-25T04:09:37.613Z,997.81
2017-04-25T04:10:38.238Z,997.76
2017-04-25T04:11:38.824Z,997.79
2017-04-25T04:12:39.430Z,997.76
2017-04-25T04:13:40.027Z,997.77
2017-04-25T04:14:40.636Z,997.75
2017-04-25T04:15:41.244Z,997.81
2017-04-25T04:16:41.847Z,997.76
2017-04-25T04:17:42.438Z,997.82
2017-04-25T04:18:43.044Z,997.76
2017-04-25T04:19:43.647Z,997.78
2017-04-25T04:20:44.250Z,997.78
2017-04-25T04:21:44.848Z,997.80
2017-04-25T04:22:45.444Z,997.77
2017-04-25T04:23:46.049Z,997.79
2017-04-25T04:24:46.662Z,997.74
2017-04-25T04:25:47.260Z,997.82
2017-04-25T04:26:47.916Z,997.86
2017-04-25T04:27:48.511Z,997.82
2017-04-25T04:28:49.121Z,997.80
2017-04-25T04:29:49.730Z,997.83
2017-04-25T04:30:50.335Z,997.86
2017-04-25T04:31:50.934Z,997.91
2017-04-25T04:32:51.525Z,997.90
2017-04-25T04:33:52.120Z,997.93
2017-04-25T04:34:52.724Z,997.93
2017-04-25T04:35:53.329Z,997.97
2017-04-25T04:36:53.991Z,997.98
2017-04-25T04:37:54.601Z,997.99
2017-04-25T04:38:55.206Z,997.96
2017-04-25T04:39:55.817Z,997.99
2017-04-25T04:40:56.414Z,998.02
2017-04-25T04:41:57.016Z,997.99
2017-04-25T04:42:57.625Z,998.00
2017-04-25T04:43:58.218Z,998.02
2017-04-25T04:44:58.818Z,998.04
2017-04-25T04:45:59.431Z,998.04
2017-04-25T04:47:00.037Z,998.01
2017-04-25T04:48:00.641Z,998.02
2017-04-25T04:49:01.236Z,998.00
2017-04-25T04:50:01.848Z,998.04
2017-04-25T04:51:02.446Z,998.01
2017-04-25T04:52:03.054Z,998.01
2017-04-25T04:53:03.654Z,997.99
2017-04-25T04:54:04.265Z,997.98
2017-04-25T04:55:04.865Z,997.94
2017-04-25T04:56:05.468Z,997.99
2017-04-25T04:57:06.081Z,997.98
2017-04-25T04:58:06.696Z,997.99
2017-04-25T04:59:07.302Z,997.89
2017-04-25T05:00:07.908Z,997.99
2017-04-25T05:01:08.503Z,998.01
2017-04-25T05:02:09.111Z,997.95
2017-04-25T05:03:09.720Z,997.98
2017-04-25T05:04:10.316Z,998.01
2017-04-25T05:05:10.914Z,997.96
2017-04-25T05:06:11.526Z,998.00
2017-04-25T05:07:12.121Z,998.00
2017-04-25T05:08:12.751Z,998.05
2017-04-25T05:09:13.320Z,998.02
2017-04-25T05:10:13.921Z,998.09
2017-04-25T05:11:14.523Z,998.16
2017-04-25T05:12:15.181Z,998.14
2017-04-25T05:13:15.796Z,998.11
2017-04-25T05:14:16.404Z,998.11
2017-04-25T05:15:17.008Z,998.08
2017-04-25T05:16:17.606Z,998.15
2017-04-25T05:17:18.257Z,998.15
2017-04-25T05:18:18.863Z,998.16
2017-04-25T05:19:19.471Z,998.17
2017-04-25T05:20:20.081Z,998.16
2017-04-25T05:21:20.685Z,998.21
2017-04-25T05:22:21.293Z,998.21
2017-04-25T05:23:21.903Z,998.22
2017-04-25T05:24:22.512Z,998.20
2017-04-25T05:25:23.125Z,998.17
2017-04-25T05:26:23.735Z,998.28
2017-04-25T05:27:24.343Z,998.23
2017-04-25T05:28:24.974Z,998.27
2017-04-25T05:29:25.560Z,998.31
2017-04-25T05:30:26.166Z,998.31
2017-04-25T05:31:26.762Z,998.38
2017-04-25T05:32:27.363Z,998.33
2017-04-25T05:33:27.960Z,998.34
2017-04-25T05:34:28.559Z,998.36
2017-04-25T05:35:29.172Z,998.40
2017-04-25T05:36:29.782Z,998.43
2017-04-25T05:37:30.400Z,998.45
2017-04-25T05:38:30.988Z,998.43
2017-04-25T05:39:31.595Z,998.47
2017-04-25T05:40:32.188Z,998.50
2017-04-25T05:41:32.787Z,998.45
2017-04-25T05:42:33.400Z,998.46
2017-04-25T05:43:34.015Z,998.48
2017-04-25T05:44:34.626Z,998.50
2017-04-25T05:45:35.232Z,998.45
2017-04-25T05:46:35.839Z,998.52
2017-04-25T05:47:36.452Z,998.45
2017-04-25T05:48:37.051Z,998.48
2017-04-25T05:49:37.660Z,998.47
2017-04-25T05:50:38.259Z,998.45
2017-04-25T05:51:38.871Z,998.48
2017-04-25T05:52:39.481Z,998.48
2017-04-25T05:53:40.086Z,998.49
2017-04-25T05:54:40.680Z,998.51
2017-04-25T05:55:41.278Z,998.45
2017-04-25T05:56:41.878Z,998.49
2017-04-25T05:57:42.555Z,998.46
2017-04-25T05:58:43.180Z,998.47
2017-04-25T05:59:43.779Z,998.47
2017-04-25T06:00:44.389Z,998.51
2017-04-25T06:01:44.990Z,998.53
2017-04-25T06:02:45.598Z,998.56
2017-04-25T06:03:46.205Z,998.52
2017-04-25T06:04:46.815Z,998.56
2017-04-25T06:05:47.415Z,998.52
2017-04-25T06:06:48.101Z,998.50
2017-04-25T06:07:48.743Z,998.53
2017-04-25T06:08:49.351Z,998.53
2017-04-25T06:09:49.978Z,998.51
2017-04-25T06:10:50.610Z,998.50
2017-04-25T06:11:51.219Z,998.54
2017-04-25T06:12:51.820Z,998.55
2017-04-25T06:13:52.435Z,998.49
2017-04-25T06:14:53.045Z,998.48
2017-04-25T06:15:53.647Z,998.56
2017-04-25T06:16:54.247Z,998.54
2017-04-25T06:17:54.855Z,998.58
2017-04-25T06:18:55.463Z,998.58
2017-04-25T06:19:56.068Z,998.60
2017-04-25T06:20:56.679Z,998.54
2017-04-25T06:21:57.291Z,998.63
2017-04-25T06:22:57.902Z,998.61
2017-04-25T06:23:58.504Z,998.63
2017-04-25T06:24:59.113Z,998.63
2017-04-25T06:25:59.712Z,998.57
2017-04-25T06:27:00.327Z,998.61
2017-04-25T06:28:00.951Z,998.52
2017-04-25T06:29:01.572Z,998.65
2017-04-25T06:30:02.175Z,998.57
2017-04-25T06:31:02.778Z,998.67
2017-04-25T06:32:03.380Z,998.66
2017-04-25T06:33:03.982Z,998.69
2017-04-25T06:34:04.595Z,998.72
2017-04-25T06:35:05.205Z,998.67
2017-04-25T06:36:05.814Z,998.70
2017-04-25T06:37:06.433Z,998.66
2017-04-25T06:38:07.046Z,998.69
2017-04-25T06:39:07.653Z,998.71
2017-04-25T06:40:08.256Z,998.72
2017-04-25T06:41:08.869Z,998.70
2017-04-25T06:42:09.481Z,998.79
2017-04-25T06:43:10.137Z,998.68
2017-04-25T06:44:10.760Z,998.75
2017-04-25T06:45:11.364Z,998.58
2017-04-25T06:46:11.971Z,998.80
2017-04-25T06:47:12.591Z,998.75
2017-04-25T06:48:13.210Z,998.67
2017-04-25T06:49:13.827Z,998.76
2017-04-25T06:50:14.444Z,998.75
2017-04-25T06:51:15.056Z,998.75
2017-04-25T06:52:15.661Z,998.83
2017-04-25T06:53:16.280Z,998.90
2017-04-25T06:54:16.885Z,998.80
2017-04-25T06:55:17.499Z,998.73
2017-04-25T06:56:18.118Z,998.71
2017-04-25T06:57:18.728Z,998.83
2017-04-25T06:58:19.348Z,998.78
2017-04-25T06:59:19.948Z,998.83
2017-04-25T07:00:20.558Z,998.83
2017-04-25T07:01:21.201Z,998.81
2017-04-25T07:02:21.783Z,998.80
2017-04-25T07:03:22.398Z,998.87
2017-04-25T07:04:23.013Z,998.75
2017-04-25T07:05:23.663Z,998.80
2017-04-25T07:06:24.265Z,998.73
2017-04-25T07:07:24.886Z,998.78
2017-04-25T07:08:25.606Z,998.63
2017-04-25T07:09:26.213Z,998.82
2017-04-25T07:10:26.829Z,998.81
2017-04-25T07:11:27.439Z,998.83
2017-04-25T07:12:28.063Z,998.84
2017-04-25T07:13:28.681Z,998.84
2017-04-25T07:14:29.296Z,998.83
2017-04-25T07:15:29.922Z,998.87
2017-04-25T07:16:30.535Z,998.84
2017-04-25T07:17:31.149Z,998.81
2017-04-25T07:18:32.036Z,998.84
2017-04-25T07:19:32.637Z,998.85
2017-04-25T07:20:33.248Z,998.84
2017-04-25T07:21:33.856Z,998.84
2017-04-25T07:22:34.468Z,998.88
2017-04-25T07:23:35.070Z,998.89
2017-04-25T07:24:35.689Z,998.88
2017-04-25T07:25:36.302Z,998.89
2017-04-25T07:26:36.916Z,999.02
2017-04-25T07:27:37.528Z,999.06
2017-04-25T07:28:38.145Z,999.12
2017-04-25T07:29:38.759Z,999.04
2017-04-25T07:30:39.368Z,999.12
2017-04-25T07:31:39.971Z,999.11
2017-04-25T07:32:40.575Z,999.13
2017-04-25T07:33:41.239Z,999.06
2017-04-25T07:34:41.854Z,999.11
2017-04-25T07:35:42.475Z,999.07
2017-04-25T07:36:43.099Z,999.01
2017-04-25T07:37:43.920Z,998.96
2017-04-25T07:38:44.596Z,999.05
2017-04-25T07:39:45.215Z,999.06
2017-04-25T07:40:45.836Z,998.94
2017-04-25T07:41:46.444Z,999.12
2017-04-25T07:42:47.080Z,999.14
2017-04-25T07:43:47.712Z,999.05
2017-04-25T07:44:48.332Z,999.16
2017-04-25T07:45:48.957Z,999.26
2017-04-25T07:46:49.560Z,999.19
2017-04-25T07:47:50.178Z,999.12
2017-04-25T07:48:50.835Z,999.25
2017-04-25T07:49:51.452Z,999.24
2017-04-25T07:50:52.067Z,999.28
2017-04-25T07:51:52.687Z,999.24
2017-04-25T07:52:53.305Z,999.27
2017-04-25T07:53:53.957Z,999.18
2017-04-25T07:54:54.573Z,999.22
2017-04-25T07:55:55.189Z,999.29
2017-04-25T07:56:55.808Z,999.36
2017-04-25T07:57:56.426Z,999.29
2017-04-25T07:58:57.031Z,999.36
2017-04-25T07:59:57.651Z,999.37
2017-04-25T08:00:58.274Z,999.38
2017-04-25T08:01:58.887Z,999.33
2017-04-25T08:02:59.503Z,999.30
2017-04-25T08:04:00.116Z,999.28
2017-04-25T08:05:00.735Z,999.32
2017-04-25T08:06:01.340Z,999.43
2017-04-25T08:07:01.949Z,999.44
2017-04-25T08:08:02.572Z,999.53
2017-04-25T08:09:03.193Z,999.50
2017-04-25T08:10:03.814Z,999.50
2017-04-25T08:11:04.439Z,999.53
2017-04-25T08:12:05.063Z,999.43
2017-04-25T08:13:05.683Z,999.44
2017-04-25T08:14:06.352Z,999.54
2017-04-25T08:15:06.977Z,999.57
2017-04-25T08:16:07.600Z,999.49
2017-04-25T08:17:08.225Z,999.55
2017-04-25T08:18:08.850Z,999.50
2017-04-25T08:19:09.472Z,999.53
2017-04-25T08:20:10.082Z,999.63
2017-04-25T08:21:10.700Z,999.62
2017-04-25T08:22:11.316Z,999.55
2017-04-25T08:23:11.938Z,999.62
2017-04-25T08:24:12.563Z,999.54
2017-04-25T08:25:13.189Z,999.60
2017-04-25T08:26:13.820Z,999.61
2017-04-25T08:27:14.437Z,999.67
2017-04-25T08:28:15.065Z,999.72
2017-04-25T08:29:15.690Z,999.63
2017-04-25T08:30:16.315Z,999.64
2017-04-25T08:31:16.945Z,999.66
2017-04-25T08:32:17.587Z,999.73
2017-04-25T08:33:18.187Z,999.69
2017-04-25T08:34:18.813Z,999.66
2017-04-25T08:35:19.427Z,999.59
2017-04-25T08:36:20.053Z,999.55
2017-04-25T08:37:20.676Z,999.64
2017-04-25T08:38:21.292Z,999.59
2017-04-25T08:39:21.923Z,999.65
2017-04-25T08:40:22.547Z,999.59
2017-04-25T08:41:23.174Z,999.72
2017-04-25T08:42:23.795Z,999.66
2017-04-25T08:43:24.421Z,999.58
2017-04-25T08:44:25.047Z,999.63
2017-04-25T08:45:25.659Z,999.60
2017-04-25T08:46:26.292Z,999.61
2017-04-25T08:47:26.908Z,999.63
2017-04-25T08:48:27.538Z,999.69
2017-04-25T08:49:28.211Z,999.67
2017-04-25T08:50:28.869Z,999.61
2017-04-25T08:51:29.482Z,999.67
2017-04-25T08:52:30.103Z,999.69
2017-04-25T08:53:30.720Z,999.69
2017-04-25T08:54:31.343Z,999.72
2017-04-25T08:55:31.964Z,999.67
2017-04-25T08:56:32.609Z,999.69
2017-04-25T08:57:33.212Z,999.67
2017-04-25T08:58:33.842Z,999.66
2017-04-25T08:59:34.518Z,999.65
2017-04-25T09:00:35.134Z,999.63
2017-04-25T09:01:35.782Z,999.72
2017-04-25T09:02:36.393Z,999.70
2017-04-25T09:03:37.013Z,999.65
2017-04-25T09:04:37.633Z,999.64
2017-04-25T09:05:38.259Z,999.74
2017-04-25T09:06:38.884Z,999.76
2017-04-25T09:07:39.505Z,999.79
2017-04-25T09:08:40.115Z,999.76
2017-04-25T09:09:40.738Z,999.77
2017-04-25T09:10:41.344Z,999.84
2017-04-25T09:11:41.961Z,999.83
2017-04-25T09:12:42.573Z,999.87
2017-04-25T09:13:43.193Z,999.87
2017-04-25T09:14:43.806Z,999.83
2017-04-25T09:15:44.412Z,999.86
2017-04-25T09:16:45.029Z,999.91
2017-04-25T09:17:45.641Z,999.78
2017-04-25T09:18:46.265Z,999.79
2017-04-25T09:19:46.891Z,999.89
2017-04-25T09:20:47.503Z,999.86
2017-04-25T09:21:48.128Z,999.84
2017-04-25T09:22:48.751Z,999.77
2017-04-25T09:23:49.370Z,999.87
2017-04-25T09:24:50.025Z,999.82
2017-04-25T09:25:50.641Z,999.86
2017-04-25T09:26:51.261Z,999.91
2017-04-25T09:27:51.869Z,999.87
2017-04-25T09:28:52.494Z,999.85
2017-04-25T09:29:53.107Z,999.92
2017-04-25T09:30:53.725Z,999.85
2017-04-25T09:31:54.338Z,999.85
2017-04-25T09:32:54.954Z,999.92
2017-04-25T09:33:55.563Z,999.91
2017-04-25T09:34:56.178Z,999.93
2017-04-25T09:35:56.799Z,999.92
2017-04-25T09:36:57.418Z,999.96
2017-04-25T09:37:58.041Z,999.96
2017-04-25T09:38:58.668Z,999.94
2017-04-25T09:39:59.327Z,999.90
2017-04-25T09:40:59.928Z,999.95
2017-04-25T09:42:00.748Z,999.88
2017-04-25T09:43:01.359Z,1000.00
2017-04-25T09:44:01.968Z,999.93
2017-04-25T09:45:02.593Z,999.91
2017-04-25T09:46:03.210Z,999.93
2017-04-25T09:47:03.830Z,999.90
2017-04-25T09:48:04.446Z,999.93
2017-04-25T09:49:05.062Z,999.99
2017-04-25T09:50:05.720Z,1000.05
2017-04-25T09:51:06.322Z,1000.04
2017-04-25T09:52:06.939Z,999.98
2017-04-25T09:53:07.585Z,999.90
2017-04-25T09:54:08.203Z,999.93
2017-04-25T09:55:08.826Z,999.84
2017-04-25T09:56:09.450Z,999.96
2017-04-25T09:57:10.078Z,999.91
2017-04-25T09:58:10.706Z,999.98
2017-04-25T09:59:11.329Z,1000.05
2017-04-25T10:00:11.936Z,999.94
2017-04-25T10:01:12.547Z,1000.03
2017-04-25T10:02:13.160Z,1000.03
2017-04-25T10:03:13.786Z,1000.00
2017-04-25T10:04:14.406Z,999.95
2017-04-25T10:05:15.177Z,999.99
2017-04-25T10:06:15.799Z,999.95
2017-04-25T10:07:16.409Z,999.91
2017-04-25T10:08:17.030Z,999.98
2017-04-25T10:09:17.652Z,999.94
2017-04-25T10:10:18.281Z,999.95
2017-04-25T10:11:18.907Z,999.94
2017-04-25T10:12:19.518Z,999.90
2017-04-25T10:13:20.144Z,999.90
2017-04-25T10:14:20.768Z,999.81
2017-04-25T10:15:21.391Z,999.71
2017-04-25T10:16:22.008Z,999.81
2017-04-25T10:17:22.620Z,999.83
2017-04-25T10:18:23.278Z,999.86
2017-04-25T10:19:23.919Z,999.79
2017-04-25T10:20:24.592Z,999.90
2017-04-25T10:21:25.203Z,999.89
2017-04-25T10:22:25.813Z,999.90
2017-04-25T10:23:26.433Z,999.88
2017-04-25T10:24:27.058Z,999.87
2017-04-25T10:25:27.914Z,999.94
2017-04-25T10:26:28.550Z,999.91
2017-04-25T10:27:29.398Z,999.81
2017-04-25T10:28:30.023Z,999.93
2017-04-25T10:29:30.646Z,999.93
2017-04-25T10:30:31.264Z,999.91
2017-04-25T10:31:31.888Z,999.86
2017-04-25T10:32:32.508Z,999.88
2017-04-25T10:33:33.128Z,999.95
2017-04-25T10:34:33.749Z,999.94
2017-04-25T10:35:34.373Z,999.96
2017-04-25T10:36:34.992Z,999.96
2017-04-25T10:37:35.613Z,999.96
2017-04-25T10:38:36.221Z,999.96
2017-04-25T10:39:36.830Z,999.99
2017-04-25T10:40:37.504Z,999.97
2017-04-25T10:41:38.118Z,999.90
2017-04-25T10:42:38.725Z,999.86
2017-04-25T10:43:39.335Z,999.93
2017-04-25T10:44:39.956Z,999.94
2017-04-25T10:45:40.567Z,999.90
2017-04-25T10:46:41.173Z,999.86
2017-04-25T10:47:41.783Z,999.87
2017-04-25T10:48:42.403Z,999.95
2017-04-25T10:49:43.015Z,999.85
2017-04-25T10:50:43.643Z,999.87
2017-04-25T10:51:44.261Z,999.87
2017-04-25T10:52:44.889Z,999.93
2017-04-25T10:53:45.503Z,999.89
2017-04-25T10:54:46.111Z,999.94
2017-04-25T10:55:46.725Z,1000.02
2017-04-25T10:56:47.348Z,999.93
2017-04-25T10:57:47.960Z,1000.01
2017-04-25T10:58:48.587Z,1000.02
2017-04-25T10:59:49.211Z,999.99
2017-04-25T11:00:49.840Z,1000.07
2017-04-25T11:01:50.446Z,1000.08
2017-04-25T11:02:51.067Z,999.94
2017-04-25T11:03:51.812Z,1000.03
2017-04-25T11:04:52.414Z,999.93
2017-04-25T11:05:53.089Z,1000.00
2017-04-25T11:06:53.710Z,1000.03
2017-04-25T11:07:54.318Z,1000.05
2017-04-25T11:08:54.927Z,1000.03
2017-04-25T11:09:55.540Z,1000.07
2017-04-25T11:10:56.164Z,1000.13
2017-04-25T11:11:56.764Z,1000.15
2017-04-25T11:12:57.381Z,1000.12
2017-04-25T11:13:58.002Z,1000.10
2017-04-25T11:14:58.622Z,1000.16
2017-04-25T11:15:59.290Z,1000.16
2017-04-25T11:16:59.911Z,1000.19
2017-04-25T11:18:00.533Z,1000.28
2017-04-25T11:19:01.138Z,1000.08
2017-04-25T11:20:01.764Z,1000.18
2017-04-25T11:21:02.382Z,1000.27
2017-04-25T11:22:03.002Z,1000.26
2017-04-25T11:23:03.820Z,1000.28
2017-04-25T11:24:04.646Z,1000.32
2017-04-25T11:25:05.270Z,1000.31
2017-04-25T11:26:05.888Z,1000.34
2017-04-25T11:27:06.497Z,1000.28
2017-04-25T11:28:07.101Z,1000.35
2017-04-25T11:29:07.723Z,1000.45
2017-04-25T11:30:08.462Z,1000.41
2017-04-25T11:31:09.120Z,1000.43
2017-04-25T11:32:09.744Z,1000.43
2017-04-25T11:33:10.363Z,1000.45
2017-04-25T11:34:10.984Z,1000.48
2017-04-25T11:35:11.603Z,1000.50
2017-04-25T11:36:12.220Z,1000.53
2017-04-25T11:37:12.841Z,1000.50
2017-04-25T11:38:13.458Z,1000.46
2017-04-25T11:39:14.088Z,1000.49
2017-04-25T11:40:14.710Z,1000.50
2017-04-25T11:41:15.332Z,1000.52
2017-04-25T11:42:15.955Z,1000.56
2017-04-25T11:43:16.563Z,1000.36
2017-04-25T11:44:17.191Z,1000.30
2017-04-25T11:45:17.804Z,1000.42
2017-04-25T11:46:18.416Z,1000.42
2017-04-25T11:47:19.044Z,1000.43
2017-04-25T11:48:19.662Z,1000.37
2017-04-25T11:49:20.289Z,1000.34
2017-04-25T11:50:21.111Z,1000.46
2017-04-25T11:51:21.733Z,1000.37
2017-04-25T11:52:22.363Z,1000.34
2017-04-25T11:53:22.986Z,1000.41
2017-04-25T11:54:23.610Z,1000.54
2017-04-25T11:55:24.431Z,1000.47
2017-04-25T11:56:25.090Z,1000.48
2017-04-25T11:57:25.706Z,1000.49
2017-04-25T11:58:26.312Z,1000.49
2017-04-25T11:59:26.931Z,1000.49
2017-04-25T12:00:27.552Z,1000.40
2017-04-25T12:01:28.216Z,1000.46
2017-04-25T12:02:28.841Z,1000.53
2017-04-25T12:03:29.467Z,1000.51
2017-04-25T12:04:30.090Z,1000.46
2017-04-25T12:05:30.701Z,1000.40
2017-04-25T12:06:31.373Z,1000.50
2017-04-25T12:07:31.985Z,1000.45
2017-04-25T12:08:32.606Z,1000.36
2017-04-25T12:09:33.228Z,1000.46
2017-04-25T12:10:33.851Z,1000.45
2017-04-25T12:11:34.480Z,1000.60
2017-04-25T12:12:35.109Z,1000.51
2017-04-25T12:13:35.730Z,1000.32
2017-04-25T12:14:36.345Z,1000.65
2017-04-25T12:15:36.957Z,1000.60
2017-04-25T12:16:37.577Z,1000.58
2017-04-25T12:17:38.201Z,1000.55
2017-04-25T12:18:38.816Z,1000.59
2017-04-25T12:19:39.433Z,1000.52
2017-04-25T12:20:40.042Z,1000.65
2017-04-25T12:21:40.646Z,1000.62
2017-04-25T12:22:41.269Z,1000.62
2017-04-25T12:23:41.875Z,1000.59
2017-04-25T12:24:42.489Z,1000.50
2017-04-25T12:25:43.100Z,1000.53
2017-04-25T12:26:43.717Z,1000.62
2017-04-25T12:27:44.580Z,1000.66
2017-04-25T12:28:45.200Z,1000.63
2017-04-25T12:29:45.822Z,1000.52
2017-04-25T12:30:46.444Z,1000.70
2017-04-25T12:31:47.082Z,1000.51
2017-04-25T12:32:47.688Z,1000.70